sensor_id;sensor_type;location;lat;lon;timestamp;P1;P2;P0
70255;PMS5003;57669;52.624;-1.688;2022-12-18T00:00:41;30;27;
70255;PMS5003;57669;52.624;-1.688;2022-12-18T00:03:07;23;22;
70255;PMS5003;57669;52.624;-1.688;2022-12-18T00:05:32;26;25;
70255;PMS5003;57669;52.624;-1.688;2022-12-18T00:07:58;32;29;
70255;PMS5003;57669;52.624;-1.688;2022-12-18T00:10:23;28;25;
70255;PMS5003;57669;52.624;-1.688;2022-12-18T00:12:49;23;22;
70255;PMS5003;57669;52.624;-1.688;2022-12-18T00:15:14;30;30;
70255;PMS5003;57669;52.624;-1.688;2022-12-18T00:17:40;28;26;
70255;PMS5003;57669;52.624;-1.688;2022-12-18T00:20:06;27;27;
70255;PMS5003;57669;52.624;-1.688;2022-12-18T00:22:31;27;25;
70255;PMS5003;57669;52.624;-1.688;2022-12-18T00:24:57;30;28;
70255;PMS5003;57669;52.624;-1.688;2022-12-18T00:27:22;38;35;
70255;PMS5003;57669;52.624;-1.688;2022-12-18T00:29:48;26;26;
70255;PMS5003;57669;52.624;-1.688;2022-12-18T00:32:14;33;29;
70255;PMS5003;57669;52.624;-1.688;2022-12-18T00:34:39;31;30;
70255;PMS5003;57669;52.624;-1.688;2022-12-18T00:37:05;32;27;
70255;PMS5003;57669;52.624;-1.688;2022-12-18T00:39:31;32;30;
70255;PMS5003;57669;52.624;-1.688;2022-12-18T00:41:56;33;31;
70255;PMS5003;57669;52.624;-1.688;2022-12-18T00:44:22;34;34;
70255;PMS5003;57669;52.624;-1.688;2022-12-18T00:46:48;39;38;
70255;PMS5003;57669;52.624;-1.688;2022-12-18T00:49:14;33;30;
70255;PMS5003;57669;52.624;-1.688;2022-12-18T00:51:39;28;28;
70255;PMS5003;57669;52.624;-1.688;2022-12-18T00:54:04;34;34;
70255;PMS5003;57669;52.624;-1.688;2022-12-18T00:56:30;34;32;
70255;PMS5003;57669;52.624;-1.688;2022-12-18T00:58:56;37;35;
70255;PMS5003;57669;52.624;-1.688;2022-12-18T01:01:21;35;33;
70255;PMS5003;57669;52.624;-1.688;2022-12-18T01:03:46;38;37;
70255;PMS5003;57669;52.624;-1.688;2022-12-18T01:06:12;32;31;
70255;PMS5003;57669;52.624;-1.688;2022-12-18T01:08:37;36;35;
70255;PMS5003;57669;52.624;-1.688;2022-12-18T01:11:06;42;38;
70255;PMS5003;57669;52.624;-1.688;2022-12-18T01:13:28;32;31;
70255;PMS5003;57669;52.624;-1.688;2022-12-18T01:15:53;31;30;
70255;PMS5003;57669;52.624;-1.688;2022-12-18T01:18:19;29;28;
70255;PMS5003;57669;52.624;-1.688;2022-12-18T01:20:44;35;31;
70255;PMS5003;57669;52.624;-1.688;2022-12-18T01:23:09;28;26;
70255;PMS5003;57669;52.624;-1.688;2022-12-18T01:25:35;31;30;
70255;PMS5003;57669;52.624;-1.688;2022-12-18T01:28:00;34;34;
70255;PMS5003;57669;52.624;-1.688;2022-12-18T01:30:26;37;34;
70255;PMS5003;57669;52.624;-1.688;2022-12-18T01:32:52;39;37;
70255;PMS5003;57669;52.624;-1.688;2022-12-18T01:35:17;30;30;
70255;PMS5003;57669;52.624;-1.688;2022-12-18T01:37:43;35;34;
70255;PMS5003;57669;52.624;-1.688;2022-12-18T01:40:09;37;36;
70255;PMS5003;57669;52.624;-1.688;2022-12-18T01:42:34;40;37;
70255;PMS5003;57669;52.624;-1.688;2022-12-18T01:45:01;40;37;
70255;PMS5003;57669;52.624;-1.688;2022-12-18T01:47:26;30;28;
70255;PMS5003;57669;52.624;-1.688;2022-12-18T01:49:50;33;32;
70255;PMS5003;57669;52.624;-1.688;2022-12-18T01:52:16;33;32;
70255;PMS5003;57669;52.624;-1.688;2022-12-18T01:54:41;43;37;
70255;PMS5003;57669;52.624;-1.688;2022-12-18T01:57:07;37;36;
70255;PMS5003;57669;52.624;-1.688;2022-12-18T01:59:33;33;31;
70255;PMS5003;57669;52.624;-1.688;2022-12-18T02:04:26;38;34;
70255;PMS5003;57669;52.624;-1.688;2022-12-18T02:06:49;35;33;
70255;PMS5003;57669;52.624;-1.688;2022-12-18T02:09:15;38;36;
70255;PMS5003;57669;52.624;-1.688;2022-12-18T02:11:40;45;41;
70255;PMS5003;57669;52.624;-1.688;2022-12-18T02:14:07;32;31;
70255;PMS5003;57669;52.624;-1.688;2022-12-18T02:16:30;35;32;
70255;PMS5003;57669;52.624;-1.688;2022-12-18T02:18:56;37;37;
70255;PMS5003;57669;52.624;-1.688;2022-12-18T02:21:22;41;37;
70255;PMS5003;57669;52.624;-1.688;2022-12-18T02:23:47;40;35;
70255;PMS5003;57669;52.624;-1.688;2022-12-18T02:26:14;45;44;
70255;PMS5003;57669;52.624;-1.688;2022-12-18T02:28:38;38;38;
70255;PMS5003;57669;52.624;-1.688;2022-12-18T02:31:03;38;36;
70255;PMS5003;57669;52.624;-1.688;2022-12-18T02:33:28;39;38;
70255;PMS5003;57669;52.624;-1.688;2022-12-18T02:35:53;44;43;
70255;PMS5003;57669;52.624;-1.688;2022-12-18T02:38:18;35;32;
70255;PMS5003;57669;52.624;-1.688;2022-12-18T02:40:45;42;39;
70255;PMS5003;57669;52.624;-1.688;2022-12-18T02:43:10;40;36;
70255;PMS5003;57669;52.624;-1.688;2022-12-18T02:45:35;50;45;
70255;PMS5003;57669;52.624;-1.688;2022-12-18T02:48:01;45;43;
70255;PMS5003;57669;52.624;-1.688;2022-12-18T02:50:26;45;43;
70255;PMS5003;57669;52.624;-1.688;2022-12-18T02:52:54;45;41;
70255;PMS5003;57669;52.624;-1.688;2022-12-18T02:55:19;50;48;
70255;PMS5003;57669;52.624;-1.688;2022-12-18T02:57:44;43;42;
70255;PMS5003;57669;52.624;-1.688;2022-12-18T03:00:10;49;47;
70255;PMS5003;57669;52.624;-1.688;2022-12-18T03:02:36;43;42;
70255;PMS5003;57669;52.624;-1.688;2022-12-18T03:05:01;50;45;
70255;PMS5003;57669;52.624;-1.688;2022-12-18T03:07:27;51;47;
70255;PMS5003;57669;52.624;-1.688;2022-12-18T03:09:50;48;42;
70255;PMS5003;57669;52.624;-1.688;2022-12-18T03:12:16;50;47;
70255;PMS5003;57669;52.624;-1.688;2022-12-18T03:14:41;49;43;
70255;PMS5003;57669;52.624;-1.688;2022-12-18T03:17:07;45;42;
70255;PMS5003;57669;52.624;-1.688;2022-12-18T03:19:32;56;51;
70255;PMS5003;57669;52.624;-1.688;2022-12-18T03:21:57;49;42;
70255;PMS5003;57669;52.624;-1.688;2022-12-18T03:24:23;50;48;
70255;PMS5003;57669;52.624;-1.688;2022-12-18T03:26:49;46;42;
70255;PMS5003;57669;52.624;-1.688;2022-12-18T03:29:24;52;51;
70255;PMS5003;57669;52.624;-1.688;2022-12-18T03:31:39;70;62;
70255;PMS5003;57669;52.624;-1.688;2022-12-18T03:34:04;60;59;
70255;PMS5003;57669;52.624;-1.688;2022-12-18T03:36:29;56;51;
70255;PMS5003;57669;52.624;-1.688;2022-12-18T03:38:54;55;52;
70255;PMS5003;57669;52.624;-1.688;2022-12-18T03:41:22;53;52;
70255;PMS5003;57669;52.624;-1.688;2022-12-18T03:43:48;54;52;
70255;PMS5003;57669;52.624;-1.688;2022-12-18T03:46:12;54;50;
70255;PMS5003;57669;52.624;-1.688;2022-12-18T03:48:37;55;51;
70255;PMS5003;57669;52.624;-1.688;2022-12-18T03:51:03;49;48;
70255;PMS5003;57669;52.624;-1.688;2022-12-18T03:53:30;49;47;
70255;PMS5003;57669;52.624;-1.688;2022-12-18T03:55:53;58;52;
70255;PMS5003;57669;52.624;-1.688;2022-12-18T03:58:19;51;47;
70255;PMS5003;57669;52.624;-1.688;2022-12-18T04:00:44;52;50;
70255;PMS5003;57669;52.624;-1.688;2022-12-18T04:03:09;54;52;
70255;PMS5003;57669;52.624;-1.688;2022-12-18T04:05:35;51;49;
70255;PMS5003;57669;52.624;-1.688;2022-12-18T04:08:00;62;58;
70255;PMS5003;57669;52.624;-1.688;2022-12-18T04:10:26;46;43;
70255;PMS5003;57669;52.624;-1.688;2022-12-18T04:12:52;53;48;
70255;PMS5003;57669;52.624;-1.688;2022-12-18T04:15:16;50;49;
70255;PMS5003;57669;52.624;-1.688;2022-12-18T04:17:43;49;48;
70255;PMS5003;57669;52.624;-1.688;2022-12-18T04:22:33;55;51;
70255;PMS5003;57669;52.624;-1.688;2022-12-18T04:24:59;53;49;
70255;PMS5003;57669;52.624;-1.688;2022-12-18T04:27:24;47;46;
70255;PMS5003;57669;52.624;-1.688;2022-12-18T04:29:50;45;44;
70255;PMS5003;57669;52.624;-1.688;2022-12-18T04:32:16;46;43;
70255;PMS5003;57669;52.624;-1.688;2022-12-18T04:34:41;51;49;
70255;PMS5003;57669;52.624;-1.688;2022-12-18T04:37:06;51;47;
70255;PMS5003;57669;52.624;-1.688;2022-12-18T04:39:31;38;38;
70255;PMS5003;57669;52.624;-1.688;2022-12-18T04:41:57;45;44;
70255;PMS5003;57669;52.624;-1.688;2022-12-18T04:44:23;42;42;
70255;PMS5003;57669;52.624;-1.688;2022-12-18T04:46:48;51;43;
70255;PMS5003;57669;52.624;-1.688;2022-12-18T04:49:13;49;45;
70255;PMS5003;57669;52.624;-1.688;2022-12-18T04:51:38;50;44;
70255;PMS5003;57669;52.624;-1.688;2022-12-18T04:54:03;58;52;
70255;PMS5003;57669;52.624;-1.688;2022-12-18T04:56:30;45;40;
70255;PMS5003;57669;52.624;-1.688;2022-12-18T04:58:54;52;45;
70255;PMS5003;57669;52.624;-1.688;2022-12-18T05:01:19;57;51;
70255;PMS5003;57669;52.624;-1.688;2022-12-18T05:03:45;55;51;
70255;PMS5003;57669;52.624;-1.688;2022-12-18T05:06:10;60;51;
70255;PMS5003;57669;52.624;-1.688;2022-12-18T05:08:36;55;54;
70255;PMS5003;57669;52.624;-1.688;2022-12-18T05:11:01;52;47;
70255;PMS5003;57669;52.624;-1.688;2022-12-18T05:13:26;57;49;
70255;PMS5003;57669;52.624;-1.688;2022-12-18T05:15:52;54;52;
70255;PMS5003;57669;52.624;-1.688;2022-12-18T05:18:23;60;52;
70255;PMS5003;57669;52.624;-1.688;2022-12-18T05:20:44;44;42;
70255;PMS5003;57669;52.624;-1.688;2022-12-18T05:23:08;58;52;
70255;PMS5003;57669;52.624;-1.688;2022-12-18T05:25:33;55;51;
70255;PMS5003;57669;52.624;-1.688;2022-12-18T05:27:59;57;53;
70255;PMS5003;57669;52.624;-1.688;2022-12-18T05:30:24;55;51;
70255;PMS5003;57669;52.624;-1.688;2022-12-18T05:32:49;55;52;
70255;PMS5003;57669;52.624;-1.688;2022-12-18T05:35:15;66;62;
70255;PMS5003;57669;52.624;-1.688;2022-12-18T05:37:40;59;52;
70255;PMS5003;57669;52.624;-1.688;2022-12-18T05:40:05;60;56;
70255;PMS5003;57669;52.624;-1.688;2022-12-18T05:42:30;64;59;
70255;PMS5003;57669;52.624;-1.688;2022-12-18T05:44:56;59;54;
70255;PMS5003;57669;52.624;-1.688;2022-12-18T05:47:21;68;61;
70255;PMS5003;57669;52.624;-1.688;2022-12-18T05:49:47;65;59;
70255;PMS5003;57669;52.624;-1.688;2022-12-18T05:52:12;61;60;
70255;PMS5003;57669;52.624;-1.688;2022-12-18T05:54:37;57;54;
70255;PMS5003;57669;52.624;-1.688;2022-12-18T05:57:03;75;70;
70255;PMS5003;57669;52.624;-1.688;2022-12-18T05:59:28;64;59;
70255;PMS5003;57669;52.624;-1.688;2022-12-18T06:01:54;70;67;
70255;PMS5003;57669;52.624;-1.688;2022-12-18T06:04:19;57;54;
70255;PMS5003;57669;52.624;-1.688;2022-12-18T06:06:44;67;60;
70255;PMS5003;57669;52.624;-1.688;2022-12-18T06:09:09;70;66;
70255;PMS5003;57669;52.624;-1.688;2022-12-18T06:11:36;68;63;
70255;PMS5003;57669;52.624;-1.688;2022-12-18T06:14:00;68;62;
70255;PMS5003;57669;52.624;-1.688;2022-12-18T06:16:26;56;55;
70255;PMS5003;57669;52.624;-1.688;2022-12-18T06:18:52;65;58;
70255;PMS5003;57669;52.624;-1.688;2022-12-18T06:21:17;58;56;
70255;PMS5003;57669;52.624;-1.688;2022-12-18T06:23:42;64;60;
70255;PMS5003;57669;52.624;-1.688;2022-12-18T06:26:09;63;61;
70255;PMS5003;57669;52.624;-1.688;2022-12-18T06:28:33;64;59;
70255;PMS5003;57669;52.624;-1.688;2022-12-18T06:30:59;65;61;
70255;PMS5003;57669;52.624;-1.688;2022-12-18T06:33:25;55;53;
70255;PMS5003;57669;52.624;-1.688;2022-12-18T06:35:49;55;49;
70255;PMS5003;57669;52.624;-1.688;2022-12-18T06:38:16;60;56;
70255;PMS5003;57669;52.624;-1.688;2022-12-18T06:40:41;62;56;
70255;PMS5003;57669;52.624;-1.688;2022-12-18T06:43:06;65;61;
70255;PMS5003;57669;52.624;-1.688;2022-12-18T06:45:32;68;64;
70255;PMS5003;57669;52.624;-1.688;2022-12-18T06:47:57;71;66;
70255;PMS5003;57669;52.624;-1.688;2022-12-18T06:50:23;62;60;
70255;PMS5003;57669;52.624;-1.688;2022-12-18T06:52:48;61;49;
70255;PMS5003;57669;52.624;-1.688;2022-12-18T06:55:13;61;55;
70255;PMS5003;57669;52.624;-1.688;2022-12-18T06:57:39;64;59;
70255;PMS5003;57669;52.624;-1.688;2022-12-18T07:00:05;70;64;
70255;PMS5003;57669;52.624;-1.688;2022-12-18T07:02:30;61;55;
70255;PMS5003;57669;52.624;-1.688;2022-12-18T07:04:55;71;65;
70255;PMS5003;57669;52.624;-1.688;2022-12-18T07:07:21;68;60;
70255;PMS5003;57669;52.624;-1.688;2022-12-18T07:09:47;62;54;
70255;PMS5003;57669;52.624;-1.688;2022-12-18T07:12:12;57;55;
70255;PMS5003;57669;52.624;-1.688;2022-12-18T07:14:37;67;61;
70255;PMS5003;57669;52.624;-1.688;2022-12-18T07:17:02;74;64;
70255;PMS5003;57669;52.624;-1.688;2022-12-18T07:19:28;54;48;
70255;PMS5003;57669;52.624;-1.688;2022-12-18T07:24:19;67;60;
70255;PMS5003;57669;52.624;-1.688;2022-12-18T07:26:45;66;56;
70255;PMS5003;57669;52.624;-1.688;2022-12-18T07:29:10;55;50;
70255;PMS5003;57669;52.624;-1.688;2022-12-18T07:31:35;68;57;
70255;PMS5003;57669;52.624;-1.688;2022-12-18T07:34:00;54;53;
70255;PMS5003;57669;52.624;-1.688;2022-12-18T07:36:26;58;55;
70255;PMS5003;57669;52.624;-1.688;2022-12-18T07:38:51;56;50;
70255;PMS5003;57669;52.624;-1.688;2022-12-18T07:41:17;60;53;
70255;PMS5003;57669;52.624;-1.688;2022-12-18T07:43:42;54;51;
70255;PMS5003;57669;52.624;-1.688;2022-12-18T07:46:07;50;47;
70255;PMS5003;57669;52.624;-1.688;2022-12-18T07:48:33;54;49;
70255;PMS5003;57669;52.624;-1.688;2022-12-18T07:50:59;60;56;
70255;PMS5003;57669;52.624;-1.688;2022-12-18T07:53:24;55;49;
70255;PMS5003;57669;52.624;-1.688;2022-12-18T07:55:54;59;55;
70255;PMS5003;57669;52.624;-1.688;2022-12-18T07:58:16;73;61;
70255;PMS5003;57669;52.624;-1.688;2022-12-18T08:00:40;62;57;
70255;PMS5003;57669;52.624;-1.688;2022-12-18T08:03:05;63;60;
70255;PMS5003;57669;52.624;-1.688;2022-12-18T08:05:31;73;68;
70255;PMS5003;57669;52.624;-1.688;2022-12-18T08:07:57;65;56;
70255;PMS5003;57669;52.624;-1.688;2022-12-18T08:10:22;67;62;
70255;PMS5003;57669;52.624;-1.688;2022-12-18T08:12:48;61;54;
70255;PMS5003;57669;52.624;-1.688;2022-12-18T08:15:13;70;64;
70255;PMS5003;57669;52.624;-1.688;2022-12-18T08:17:38;72;68;
70255;PMS5003;57669;52.624;-1.688;2022-12-18T08:20:04;50;48;
70255;PMS5003;57669;52.624;-1.688;2022-12-18T08:22:30;63;57;
70255;PMS5003;57669;52.624;-1.688;2022-12-18T08:24:55;67;65;
70255;PMS5003;57669;52.624;-1.688;2022-12-18T08:27:21;59;55;
70255;PMS5003;57669;52.624;-1.688;2022-12-18T08:29:46;59;52;
70255;PMS5003;57669;52.624;-1.688;2022-12-18T08:32:12;54;49;
70255;PMS5003;57669;52.624;-1.688;2022-12-18T08:34:37;57;54;
70255;PMS5003;57669;52.624;-1.688;2022-12-18T08:37:03;54;51;
70255;PMS5003;57669;52.624;-1.688;2022-12-18T08:39:28;57;53;
70255;PMS5003;57669;52.624;-1.688;2022-12-18T08:41:54;56;50;
70255;PMS5003;57669;52.624;-1.688;2022-12-18T08:44:20;70;69;
70255;PMS5003;57669;52.624;-1.688;2022-12-18T08:46:45;71;67;
70255;PMS5003;57669;52.624;-1.688;2022-12-18T08:49:11;88;80;
70255;PMS5003;57669;52.624;-1.688;2022-12-18T08:51:36;85;71;
70255;PMS5003;57669;52.624;-1.688;2022-12-18T08:54:01;205;174;
70255;PMS5003;57669;52.624;-1.688;2022-12-18T08:56:27;208;176;
70255;PMS5003;57669;52.624;-1.688;2022-12-18T08:58:54;197;168;
70255;PMS5003;57669;52.624;-1.688;2022-12-18T09:01:18;162;131;
70255;PMS5003;57669;52.624;-1.688;2022-12-18T09:03:43;90;73;
70255;PMS5003;57669;52.624;-1.688;2022-12-18T09:06:09;101;81;
70255;PMS5003;57669;52.624;-1.688;2022-12-18T09:08:35;105;95;
70255;PMS5003;57669;52.624;-1.688;2022-12-18T09:10:59;45;44;
70255;PMS5003;57669;52.624;-1.688;2022-12-18T09:13:25;80;69;
70255;PMS5003;57669;52.624;-1.688;2022-12-18T09:15:50;76;68;
70255;PMS5003;57669;52.624;-1.688;2022-12-18T09:18:16;94;83;
70255;PMS5003;57669;52.624;-1.688;2022-12-18T09:20:41;93;82;
70255;PMS5003;57669;52.624;-1.688;2022-12-18T09:23:07;75;71;
70255;PMS5003;57669;52.624;-1.688;2022-12-18T09:25:33;71;60;
70255;PMS5003;57669;52.624;-1.688;2022-12-18T09:27:58;76;70;
70255;PMS5003;57669;52.624;-1.688;2022-12-18T09:30:23;91;85;
70255;PMS5003;57669;52.624;-1.688;2022-12-18T09:32:49;105;94;
70255;PMS5003;57669;52.624;-1.688;2022-12-18T09:35:14;66;59;
70255;PMS5003;57669;52.624;-1.688;2022-12-18T09:37:39;110;102;
70255;PMS5003;57669;52.624;-1.688;2022-12-18T09:40:05;67;62;
70255;PMS5003;57669;52.624;-1.688;2022-12-18T09:42:30;64;59;
70255;PMS5003;57669;52.624;-1.688;2022-12-18T09:44:55;84;80;
70255;PMS5003;57669;52.624;-1.688;2022-12-18T09:47:21;84;80;
70255;PMS5003;57669;52.624;-1.688;2022-12-18T09:49:46;69;65;
70255;PMS5003;57669;52.624;-1.688;2022-12-18T09:52:14;61;56;
70255;PMS5003;57669;52.624;-1.688;2022-12-18T09:54:38;65;64;
70255;PMS5003;57669;52.624;-1.688;2022-12-18T09:57:03;60;53;
70255;PMS5003;57669;52.624;-1.688;2022-12-18T09:59:30;50;49;
70255;PMS5003;57669;52.624;-1.688;2022-12-18T10:01:53;57;51;
70255;PMS5003;57669;52.624;-1.688;2022-12-18T10:04:19;57;52;
70255;PMS5003;57669;52.624;-1.688;2022-12-18T10:06:46;52;48;
70255;PMS5003;57669;52.624;-1.688;2022-12-18T10:09:13;48;45;
70255;PMS5003;57669;52.624;-1.688;2022-12-18T10:11:38;45;45;
70255;PMS5003;57669;52.624;-1.688;2022-12-18T10:14:03;43;42;
70255;PMS5003;57669;52.624;-1.688;2022-12-18T10:16:27;49;47;
70255;PMS5003;57669;52.624;-1.688;2022-12-18T10:19:00;48;47;
70255;PMS5003;57669;52.624;-1.688;2022-12-18T10:21:17;48;47;
70255;PMS5003;57669;52.624;-1.688;2022-12-18T10:23:43;44;40;
70255;PMS5003;57669;52.624;-1.688;2022-12-18T10:26:08;46;42;
70255;PMS5003;57669;52.624;-1.688;2022-12-18T10:28:34;48;44;
70255;PMS5003;57669;52.624;-1.688;2022-12-18T10:30:59;44;42;
70255;PMS5003;57669;52.624;-1.688;2022-12-18T10:33:28;40;40;
70255;PMS5003;57669;52.624;-1.688;2022-12-18T10:35:50;37;35;
70255;PMS5003;57669;52.624;-1.688;2022-12-18T10:43:10;42;40;
70255;PMS5003;57669;52.624;-1.688;2022-12-18T10:45:32;43;40;
70255;PMS5003;57669;52.624;-1.688;2022-12-18T10:47:56;41;38;
70255;PMS5003;57669;52.624;-1.688;2022-12-18T10:50:24;38;35;
70255;PMS5003;57669;52.624;-1.688;2022-12-18T10:55:13;42;37;
70255;PMS5003;57669;52.624;-1.688;2022-12-18T10:57:38;40;40;
70255;PMS5003;57669;52.624;-1.688;2022-12-18T11:02:33;39;36;
70255;PMS5003;57669;52.624;-1.688;2022-12-18T11:04:54;43;42;
70255;PMS5003;57669;52.624;-1.688;2022-12-18T11:07:26;42;40;
70255;PMS5003;57669;52.624;-1.688;2022-12-18T11:09:59;46;38;
70255;PMS5003;57669;52.624;-1.688;2022-12-18T11:12:14;48;42;
70255;PMS5003;57669;52.624;-1.688;2022-12-18T11:14:41;48;47;
70255;PMS5003;57669;52.624;-1.688;2022-12-18T11:17:01;51;50;
70255;PMS5003;57669;52.624;-1.688;2022-12-18T11:19:30;45;45;
70255;PMS5003;57669;52.624;-1.688;2022-12-18T11:21:59;52;51;
70255;PMS5003;57669;52.624;-1.688;2022-12-18T11:24:19;47;44;
70255;PMS5003;57669;52.624;-1.688;2022-12-18T11:26:44;62;59;
70255;PMS5003;57669;52.624;-1.688;2022-12-18T11:29:10;66;59;
70255;PMS5003;57669;52.624;-1.688;2022-12-18T11:31:35;53;49;
70255;PMS5003;57669;52.624;-1.688;2022-12-18T11:34:02;59;58;
70255;PMS5003;57669;52.624;-1.688;2022-12-18T11:36:25;57;56;
70255;PMS5003;57669;52.624;-1.688;2022-12-18T11:38:52;64;63;
70255;PMS5003;57669;52.624;-1.688;2022-12-18T11:41:19;52;49;
70255;PMS5003;57669;52.624;-1.688;2022-12-18T11:43:44;50;46;
70255;PMS5003;57669;52.624;-1.688;2022-12-18T11:46:08;55;53;
70255;PMS5003;57669;52.624;-1.688;2022-12-18T11:48:34;53;50;
70255;PMS5003;57669;52.624;-1.688;2022-12-18T11:50:59;45;44;
70255;PMS5003;57669;52.624;-1.688;2022-12-18T11:53:25;52;49;
70255;PMS5003;57669;52.624;-1.688;2022-12-18T11:55:55;61;52;
70255;PMS5003;57669;52.624;-1.688;2022-12-18T11:58:19;50;48;
70255;PMS5003;57669;52.624;-1.688;2022-12-18T12:00:42;58;51;
70255;PMS5003;57669;52.624;-1.688;2022-12-18T12:03:10;47;44;
70255;PMS5003;57669;52.624;-1.688;2022-12-18T12:05:34;57;53;
70255;PMS5003;57669;52.624;-1.688;2022-12-18T12:07:58;45;40;
70255;PMS5003;57669;52.624;-1.688;2022-12-18T12:10:26;45;44;
70255;PMS5003;57669;52.624;-1.688;2022-12-18T12:12:52;49;45;
70255;PMS5003;57669;52.624;-1.688;2022-12-18T12:15:15;51;48;
70255;PMS5003;57669;52.624;-1.688;2022-12-18T12:17:40;51;47;
70255;PMS5003;57669;52.624;-1.688;2022-12-18T12:20:06;49;48;
70255;PMS5003;57669;52.624;-1.688;2022-12-18T12:22:31;48;45;
70255;PMS5003;57669;52.624;-1.688;2022-12-18T12:24:59;47;45;
70255;PMS5003;57669;52.624;-1.688;2022-12-18T12:27:21;48;46;
70255;PMS5003;57669;52.624;-1.688;2022-12-18T12:29:48;51;49;
70255;PMS5003;57669;52.624;-1.688;2022-12-18T12:32:15;55;51;
70255;PMS5003;57669;52.624;-1.688;2022-12-18T12:34:38;50;48;
70255;PMS5003;57669;52.624;-1.688;2022-12-18T12:37:06;51;49;
70255;PMS5003;57669;52.624;-1.688;2022-12-18T12:39:30;62;58;
70255;PMS5003;57669;52.624;-1.688;2022-12-18T12:41:55;44;43;
70255;PMS5003;57669;52.624;-1.688;2022-12-18T12:44:20;53;50;
70255;PMS5003;57669;52.624;-1.688;2022-12-18T12:46:45;49;46;
70255;PMS5003;57669;52.624;-1.688;2022-12-18T12:49:11;49;48;
70255;PMS5003;57669;52.624;-1.688;2022-12-18T12:51:36;67;62;
70255;PMS5003;57669;52.624;-1.688;2022-12-18T12:54:01;113;108;
70255;PMS5003;57669;52.624;-1.688;2022-12-18T12:56:30;57;54;
70255;PMS5003;57669;52.624;-1.688;2022-12-18T12:58:55;111;97;
70255;PMS5003;57669;52.624;-1.688;2022-12-18T13:01:22;61;60;
70255;PMS5003;57669;52.624;-1.688;2022-12-18T13:03:48;38;38;
70255;PMS5003;57669;52.624;-1.688;2022-12-18T13:06:11;50;47;
70255;PMS5003;57669;52.624;-1.688;2022-12-18T13:11:01;58;57;
70255;PMS5003;57669;52.624;-1.688;2022-12-18T13:13:27;45;44;
70255;PMS5003;57669;52.624;-1.688;2022-12-18T13:18:19;55;54;
70255;PMS5003;57669;52.624;-1.688;2022-12-18T13:20:44;44;43;
70255;PMS5003;57669;52.624;-1.688;2022-12-18T13:25:35;48;43;
70255;PMS5003;57669;52.624;-1.688;2022-12-18T13:28:02;54;49;
70255;PMS5003;57669;52.624;-1.688;2022-12-18T13:32:52;55;50;
70255;PMS5003;57669;52.624;-1.688;2022-12-18T13:37:43;54;47;
70255;PMS5003;57669;52.624;-1.688;2022-12-18T13:44:58;60;51;
70255;PMS5003;57669;52.624;-1.688;2022-12-18T13:47:25;49;47;
70255;PMS5003;57669;52.624;-1.688;2022-12-18T13:49:49;45;43;
70255;PMS5003;57669;52.624;-1.688;2022-12-18T13:52:15;50;46;
70255;PMS5003;57669;52.624;-1.688;2022-12-18T13:54:40;55;54;
70255;PMS5003;57669;52.624;-1.688;2022-12-18T13:57:05;47;41;
70255;PMS5003;57669;52.624;-1.688;2022-12-18T13:59:33;49;48;
70255;PMS5003;57669;52.624;-1.688;2022-12-18T14:01:56;47;46;
70255;PMS5003;57669;52.624;-1.688;2022-12-18T14:04:23;42;41;
70255;PMS5003;57669;52.624;-1.688;2022-12-18T14:06:46;58;53;
70255;PMS5003;57669;52.624;-1.688;2022-12-18T14:09:13;50;48;
70255;PMS5003;57669;52.624;-1.688;2022-12-18T14:11:36;50;49;
70255;PMS5003;57669;52.624;-1.688;2022-12-18T14:14:08;51;48;
70255;PMS5003;57669;52.624;-1.688;2022-12-18T14:16:28;48;47;
70255;PMS5003;57669;52.624;-1.688;2022-12-18T14:18:54;51;48;
70255;PMS5003;57669;52.624;-1.688;2022-12-18T14:21:20;48;46;
70255;PMS5003;57669;52.624;-1.688;2022-12-18T14:23:44;42;42;
70255;PMS5003;57669;52.624;-1.688;2022-12-18T14:28:42;45;41;
70255;PMS5003;57669;52.624;-1.688;2022-12-18T14:31:01;47;43;
70255;PMS5003;57669;52.624;-1.688;2022-12-18T14:33:27;40;39;
70255;PMS5003;57669;52.624;-1.688;2022-12-18T14:35:54;41;39;
70255;PMS5003;57669;52.624;-1.688;2022-12-18T14:38:22;42;39;
70255;PMS5003;57669;52.624;-1.688;2022-12-18T14:40:43;43;41;
70255;PMS5003;57669;52.624;-1.688;2022-12-18T14:43:09;41;37;
70255;PMS5003;57669;52.624;-1.688;2022-12-18T14:45:35;39;36;
70255;PMS5003;57669;52.624;-1.688;2022-12-18T14:48:00;36;35;
70255;PMS5003;57669;52.624;-1.688;2022-12-18T14:50:26;40;38;
70255;PMS5003;57669;52.624;-1.688;2022-12-18T14:52:51;35;34;
70255;PMS5003;57669;52.624;-1.688;2022-12-18T14:55:16;35;34;
70255;PMS5003;57669;52.624;-1.688;2022-12-18T14:57:42;38;36;
70255;PMS5003;57669;52.624;-1.688;2022-12-18T15:00:14;31;30;
70255;PMS5003;57669;52.624;-1.688;2022-12-18T15:02:34;33;31;
70255;PMS5003;57669;52.624;-1.688;2022-12-18T15:05:00;37;36;
70255;PMS5003;57669;52.624;-1.688;2022-12-18T15:07:24;36;35;
70255;PMS5003;57669;52.624;-1.688;2022-12-18T15:14:41;38;35;
70255;PMS5003;57669;52.624;-1.688;2022-12-18T15:17:13;30;29;
70255;PMS5003;57669;52.624;-1.688;2022-12-18T15:19:34;32;29;
70255;PMS5003;57669;52.624;-1.688;2022-12-18T15:21:57;25;23;
70255;PMS5003;57669;52.624;-1.688;2022-12-18T15:24:23;27;27;
70255;PMS5003;57669;52.624;-1.688;2022-12-18T15:26:47;26;25;
70255;PMS5003;57669;52.624;-1.688;2022-12-18T15:29:15;26;25;
70255;PMS5003;57669;52.624;-1.688;2022-12-18T15:31:38;29;28;
70255;PMS5003;57669;52.624;-1.688;2022-12-18T15:36:29;26;24;
70255;PMS5003;57669;52.624;-1.688;2022-12-18T15:38:55;24;23;
70255;PMS5003;57669;52.624;-1.688;2022-12-18T15:41:21;22;22;
70255;PMS5003;57669;52.624;-1.688;2022-12-18T15:43:45;25;24;
70255;PMS5003;57669;52.624;-1.688;2022-12-18T15:46:11;26;26;
70255;PMS5003;57669;52.624;-1.688;2022-12-18T15:48:38;30;29;
70255;PMS5003;57669;52.624;-1.688;2022-12-18T15:51:02;23;22;
70255;PMS5003;57669;52.624;-1.688;2022-12-18T15:53:28;23;22;
70255;PMS5003;57669;52.624;-1.688;2022-12-18T15:55:53;30;26;
70255;PMS5003;57669;52.624;-1.688;2022-12-18T15:58:18;26;25;
70255;PMS5003;57669;52.624;-1.688;2022-12-18T16:00:43;23;22;
70255;PMS5003;57669;52.624;-1.688;2022-12-18T16:03:09;26;24;
70255;PMS5003;57669;52.624;-1.688;2022-12-18T16:05:35;23;22;
70255;PMS5003;57669;52.624;-1.688;2022-12-18T16:08:00;26;25;
70255;PMS5003;57669;52.624;-1.688;2022-12-18T16:10:26;26;25;
70255;PMS5003;57669;52.624;-1.688;2022-12-18T16:12:51;25;21;
70255;PMS5003;57669;52.624;-1.688;2022-12-18T16:15:16;22;22;
70255;PMS5003;57669;52.624;-1.688;2022-12-18T16:17:42;21;18;
70255;PMS5003;57669;52.624;-1.688;2022-12-18T16:20:08;15;15;
70255;PMS5003;57669;52.624;-1.688;2022-12-18T16:22:32;16;15;
70255;PMS5003;57669;52.624;-1.688;2022-12-18T16:24:58;21;18;
70255;PMS5003;57669;52.624;-1.688;2022-12-18T16:27:24;17;17;
70255;PMS5003;57669;52.624;-1.688;2022-12-18T16:29:49;14;14;
70255;PMS5003;57669;52.624;-1.688;2022-12-18T16:32:15;19;17;